Terminal Aerodrome Forecast
Issued by NWS Miami, FL

Home | Current Version | Previous Version | Text Only | Print | Product List | Glossary On
Versions: 1 2 3 4 5 6 7 8 9 10 11 12 13 14 15 16 17 18 19 20 21 22 23 24 25 26 27 28 29 30 31 32 33 34 35 36 37 38 39 40 41 42 43 44 45 46 47 48 49 50
000
FTUS42 KMFL 231701 AAF
TAFPBI
TAF AMD
KPBI 231701Z 2317/2412 VRB06KT 6SM -SHRA FEW015 SCT025 BKN050
      TEMPO 2317/2318 VRB15KT 4SM +TSRA BKN015CB OVC025
     FM231800 11012KT P6SM VCSH SCT020 BKN035 OVC050
     FM240100 25010KT P6SM VCSH FEW015 SCT030 BKN120
     FM240600 VRB05KT P6SM FEW250=

USA.gov is the U.S. government's official web portal to all federal, state and local government web resources and services.